Time;durP1;ratioP1;P1;durP2;ratioP2;P2;SDS_P1;SDS_P2;PMS_P1;PMS_P2;Temp;Humidity;BMP_temperature;BMP_pressure;BME280_temperature;BME280_humidity;BME280_pressure;Samples;Min_cycle;Max_cycle;Signal;HPM_P1;HPM_P2
2021/12/31 00:02:21;;;;;;;7.32;2.03;;;;;;;20.89;52.58;101672.09;5094380;28;20526;-59
2021/12/31 00:04:47;;;;;;;3.80;1.48;;;;;;;20.87;52.16;101671.44;5094254;28;20028;-60
2021/12/31 00:07:12;;;;;;;1.95;0.95;;;;;;;20.86;52.20;101678.75;5091594;28;20031;-60
2021/12/31 00:09:38;;;;;;;5.05;1.63;;;;;;;20.88;52.13;101673.16;5093992;28;20020;-60
2021/12/31 00:12:04;;;;;;;6.43;1.13;;;;;;;20.85;52.20;101660.69;5076217;28;20035;-59
2021/12/31 00:14:30;;;;;;;5.32;1.35;;;;;;;20.89;52.41;101672.94;5094233;28;20020;-60
2021/12/31 00:16:56;;;;;;;4.18;1.05;;;;;;;20.88;52.29;101664.97;5094052;28;20046;-59
2021/12/31 00:19:22;;;;;;;2.03;1.05;;;;;;;20.88;52.86;101659.53;5076070;28;20384;-60
2021/12/31 00:21:49;;;;;;;3.15;1.05;;;;;;;20.86;52.01;101665.13;5094039;28;20043;-59
2021/12/31 00:24:14;;;;;;;4.57;1.50;;;;;;;20.88;51.83;101665.78;5094332;28;20103;-59
2021/12/31 00:26:40;;;;;;;2.75;1.63;;;;;;;20.90;52.26;101665.63;5094337;28;20039;-59
2021/12/31 00:29:05;;;;;;;3.13;1.60;;;;;;;20.90;51.97;101658.31;5093652;28;20495;-59
2021/12/31 00:31:30;;;;;;;4.90;1.45;;;;;;;20.90;51.89;101650.16;5093620;28;20098;-60
2021/12/31 00:33:56;;;;;;;6.72;1.73;;;;;;;20.90;52.48;101658.31;5093782;28;20094;-60
2021/12/31 00:36:21;;;;;;;1.73;1.00;;;;;;;20.89;51.48;101663.91;5093842;28;20077;-59
2021/12/31 00:38:47;;;;;;;3.17;1.27;;;;;;;20.88;52.24;101660.34;5075822;28;20374;-59
2021/12/31 00:41:12;;;;;;;4.00;1.58;;;;;;;20.87;52.36;101657.81;5093541;28;20042;-59
2021/12/31 00:43:37;;;;;;;7.20;1.45;;;;;;;20.92;52.69;101671.75;5093593;28;20054;-59
2021/12/31 00:46:03;;;;;;;3.97;1.35;;;;;;;20.92;52.08;101663.56;5093316;28;20119;-60
2021/12/31 00:48:28;;;;;;;6.55;1.38;;;;;;;20.90;52.26;101657.47;5093528;28;20020;-59
2021/12/31 00:50:54;;;;;;;2.40;1.35;;;;;;;20.93;51.62;101665.28;5093726;28;20016;-59
2021/12/31 00:53:20;;;;;;;3.10;1.30;;;;;;;20.92;51.79;101656.25;5093327;28;20422;-59
2021/12/31 00:55:45;;;;;;;6.45;1.60;;;;;;;20.93;52.02;101657.13;5075324;28;20028;-59
2021/12/31 00:58:10;;;;;;;8.55;1.33;;;;;;;20.92;52.21;101667.16;5075505;28;20024;-60
2021/12/31 01:00:36;;;;;;;2.78;1.17;;;;;;;20.90;52.19;101662.91;5093306;28;20064;-59
2021/12/31 01:03:01;;;;;;;6.13;1.63;;;;;;;20.90;51.31;101665.63;5093357;28;20031;-59
2021/12/31 01:05:27;;;;;;;4.38;1.52;;;;;;;20.89;51.50;101667.50;5076065;28;20035;-58
2021/12/31 01:07:52;;;;;;;2.17;1.10;;;;;;;20.87;52.18;101664.13;5094546;28;20389;-59
2021/12/31 01:10:19;;;;;;;12.30;1.50;;;;;;;20.89;52.01;101677.53;5076623;28;20028;-59
2021/12/31 01:12:44;;;;;;;2.53;1.42;;;;;;;20.89;51.64;101666.66;5094819;28;20056;-59
2021/12/31 01:15:32;;;;;;;4.82;1.20;;;;;;;20.90;51.87;101671.09;5094110;28;20797;-59
2021/12/31 01:20:23;;;;;;;5.38;1.38;;;;;;;20.85;51.69;101673.50;5093160;28;20388;-59
2021/12/31 01:22:49;;;;;;;1.10;0.90;;;;;;;20.90;51.70;101668.34;5075234;28;20078;-59
2021/12/31 01:25:14;;;;;;;3.42;1.25;;;;;;;20.88;51.43;101670.41;5093122;28;20024;-59
2021/12/31 01:27:40;;;;;;;1.60;0.95;;;;;;;20.90;51.25;101676.53;5093238;28;20060;-59
2021/12/31 01:30:07;;;;;;;3.67;1.00;;;;;;;20.90;51.62;101668.34;5074912;28;20112;-58
2021/12/31 01:32:33;;;;;;;2.88;1.33;;;;;;;20.88;51.29;101664.97;5058603;28;20022;-59
2021/12/31 01:34:59;;;;;;;3.33;1.20;;;;;;;20.88;52.12;101673.16;5093404;28;20099;-59
2021/12/31 01:37:24;;;;;;;3.97;1.40;;;;;;;20.86;51.48;101672.44;5074797;28;20024;-59
2021/12/31 01:39:50;;;;;;;6.18;1.33;;;;;;;20.85;51.63;101665.31;5092978;28;20114;-59
2021/12/31 01:42:17;;;;;;;3.05;0.90;;;;;;;20.83;51.20;101662.75;5092758;28;20453;-58
2021/12/31 01:44:52;;;;;;;4.00;2.08;;;;;;;20.84;52.20;101658.16;5075223;28;20064;-59
2021/12/31 01:47:22;;;;;;;6.22;1.42;;;;;;;20.84;51.44;101669.91;5076260;28;20024;-59
2021/12/31 01:49:58;;;;;;;4.50;1.35;;;;;;;20.86;51.51;101669.72;5090419;28;20024;-59
2021/12/31 01:52:24;;;;;;;2.17;1.55;;;;;;;20.85;51.51;101670.75;5092903;28;20031;-59
2021/12/31 01:54:50;;;;;;;4.80;1.00;;;;;;;20.81;52.17;101669.41;5075150;28;20012;-59
2021/12/31 01:57:17;;;;;;;3.10;1.42;;;;;;;20.82;50.96;101679.28;5058336;28;20016;-58
2021/12/31 01:59:43;;;;;;;5.18;1.80;;;;;;;20.83;51.63;101672.78;5074491;28;20028;-60
2021/12/31 02:02:09;;;;;;;7.00;1.13;;;;;;;20.83;51.74;101672.78;5093136;28;20035;-59
2021/12/31 02:04:37;;;;;;;3.58;1.10;;;;;;;20.82;51.64;101666.53;5074710;28;20404;-62
2021/12/31 02:07:03;;;;;;;3.33;1.20;;;;;;;20.88;51.37;101670.41;5092745;28;20036;-59
2021/12/31 02:09:33;;;;;;;5.55;1.13;;;;;;;20.87;51.52;101665.97;5093324;28;20412;-59
2021/12/31 02:11:58;;;;;;;4.97;1.10;;;;;;;20.85;51.34;101676.22;5076003;28;20028;-59
2021/12/31 02:14:24;;;;;;;2.42;1.60;;;;;;;20.84;51.97;101675.34;5111994;28;20127;-60
2021/12/31 02:16:51;;;;;;;3.45;1.00;;;;;;;20.81;51.19;101675.72;5097199;28;20024;-58
2021/12/31 02:19:26;;;;;;;2.72;1.10;;;;;;;20.81;52.24;101669.41;5096977;28;20059;-59
2021/12/31 02:21:51;;;;;;;1.70;0.82;;;;;;;20.80;51.88;101678.59;5096889;28;20042;-59
2021/12/31 02:24:18;;;;;;;4.68;1.08;;;;;;;20.78;51.51;101665.16;5097033;28;20103;-59
2021/12/31 02:26:43;;;;;;;7.20;1.50;;;;;;;20.80;51.24;101675.88;5097159;28;20098;-58
2021/12/31 02:29:08;;;;;;;2.97;1.10;;;;;;;20.80;51.42;101673.13;5096951;28;20107;-58
2021/12/31 02:31:34;;;;;;;2.10;0.93;;;;;;;20.82;51.12;101671.13;5096536;28;20111;-59
2021/12/31 02:33:59;;;;;;;1.08;0.80;;;;;;;20.78;51.60;101664.31;5095973;28;20046;-59
2021/12/31 02:36:25;;;;;;;4.78;1.50;;;;;;;20.81;51.18;101669.41;5096730;28;20431;-59
2021/12/31 02:38:50;;;;;;;6.15;1.33;;;;;;;20.81;50.83;101667.53;5096071;28;20119;-58
2021/12/31 02:41:15;;;;;;;5.20;1.27;;;;;;;20.79;51.74;101674.19;5096522;28;20465;-59
2021/12/31 02:43:41;;;;;;;5.88;1.02;;;;;;;20.79;51.48;101664.16;5078294;28;20532;-59
2021/12/31 02:46:06;;;;;;;3.95;1.00;;;;;;;20.75;51.46;101661.94;5096578;28;20106;-59
2021/12/31 02:48:32;;;;;;;4.95;1.27;;;;;;;20.70;51.95;101659.75;5096703;28;20048;-59
2021/12/31 02:50:59;;;;;;;1.98;0.98;;;;;;;20.74;51.79;101668.41;5096389;28;20031;-59
2021/12/31 02:53:31;;;;;;;3.85;1.45;;;;;;;20.75;51.10;101656.47;5096858;28;20016;-59
2021/12/31 02:56:05;;;;;;;3.38;0.93;;;;;;;20.71;51.46;101657.88;5097187;28;20089;-59
2021/12/31 02:58:31;;;;;;;1.40;1.08;;;;;;;20.69;51.68;101646.28;5097085;28;20023;-59
2021/12/31 03:00:57;;;;;;;1.15;0.90;;;;;;;20.67;51.41;101648.34;5078910;28;20516;-59
2021/12/31 03:03:24;;;;;;;2.45;0.82;;;;;;;20.68;51.27;101641.88;5079095;28;20031;-59
2021/12/31 03:05:52;;;;;;;3.88;0.70;;;;;;;20.68;51.91;101652.78;5096860;28;20450;-59
2021/12/31 03:08:18;;;;;;;3.40;1.20;;;;;;;20.69;51.91;101649.00;5079058;28;20461;-60
2021/12/31 03:10:44;;;;;;;2.50;1.60;;;;;;;20.67;51.44;101645.63;5078679;28;20020;-59
2021/12/31 03:13:10;;;;;;;1.40;0.80;;;;;;;20.72;51.42;101648.66;5078989;28;20039;-60
2021/12/31 03:15:36;;;;;;;2.20;0.90;;;;;;;20.71;51.55;101642.38;5096791;28;20028;-58
2021/12/31 03:18:03;;;;;;;3.25;1.00;;;;;;;20.70;51.22;101631.66;5096673;28;20040;-59
2021/12/31 03:20:42;;;;;;;4.05;1.10;;;;;;;20.70;51.47;101628.94;5096834;28;20089;-60
2021/12/31 03:23:08;;;;;;;2.67;1.02;;;;;;;20.67;50.78;101626.56;5096668;28;20031;-60
2021/12/31 03:25:33;;;;;;;7.88;1.73;;;;;;;20.65;51.15;101629.47;5096068;28;20024;-58
2021/12/31 03:27:59;;;;;;;2.72;1.27;;;;;;;20.65;51.00;101634.06;5096696;28;20086;-59
2021/12/31 03:30:25;;;;;;;2.03;0.93;;;;;;;20.64;51.30;101630.47;5096421;28;20052;-59
2021/12/31 03:32:51;;;;;;;4.40;1.48;;;;;;;20.64;51.31;101630.47;5096251;28;20035;-60
2021/12/31 03:35:16;;;;;;;4.00;1.15;;;;;;;20.60;50.98;101628.28;5096179;28;20435;-58
2021/12/31 03:37:42;;;;;;;0.85;0.60;;;;;;;20.59;50.92;101626.59;5096337;28;20031;-59
2021/12/31 03:40:07;;;;;;;3.92;1.10;;;;;;;20.55;51.56;101626.06;5096188;28;20369;-59
2021/12/31 03:42:33;;;;;;;1.23;0.88;;;;;;;20.53;51.04;101632.72;5095884;28;20027;-60
2021/12/31 03:44:58;;;;;;;4.95;1.10;;;;;;;20.49;51.07;101625.94;5096115;28;20039;-59
2021/12/31 03:47:24;;;;;;;2.25;1.08;;;;;;;20.50;51.59;101633.06;5096025;28;20024;-59
2021/12/31 03:49:49;;;;;;;1.27;0.98;;;;;;;20.50;50.71;101633.06;5096285;28;20111;-59
2021/12/31 03:52:14;;;;;;;3.92;1.05;;;;;;;20.47;51.00;101634.28;5077879;28;20085;-59
2021/12/31 03:54:40;;;;;;;2.17;0.93;;;;;;;20.47;50.92;101633.41;5095962;28;20453;-59
2021/12/31 03:57:05;;;;;;;3.85;1.15;;;;;;;20.46;51.35;101635.31;5096189;28;20031;-59
2021/12/31 03:59:30;;;;;;;2.25;0.68;;;;;;;20.45;51.36;101638.19;5095467;28;20020;-59
2021/12/31 04:01:56;;;;;;;6.75;1.00;;;;;;;20.44;51.11;101640.06;5077722;28;20056;-59
2021/12/31 04:04:21;;;;;;;4.35;1.10;;;;;;;20.42;51.99;101641.25;5095616;28;20028;-59
2021/12/31 04:06:46;;;;;;;3.25;1.48;;;;;;;20.42;51.46;101635.81;5095591;28;20028;-60
2021/12/31 04:09:12;;;;;;;3.83;1.00;;;;;;;20.42;51.33;101636.66;5095445;28;20046;-59
2021/12/31 04:11:38;;;;;;;3.10;1.45;;;;;;;20.38;51.09;101623.59;5095513;28;20024;-58
2021/12/31 04:14:03;;;;;;;5.38;0.95;;;;;;;20.39;51.50;101625.28;5094984;28;20030;-59
2021/12/31 04:16:30;;;;;;;3.35;1.02;;;;;;;20.38;51.11;101631.75;5095540;28;20111;-59
2021/12/31 04:18:56;;;;;;;1.50;1.00;;;;;;;20.35;51.88;101621.22;5095133;28;20424;-58
2021/12/31 04:21:23;;;;;;;6.72;1.33;;;;;;;20.32;51.42;101622.41;5095661;28;20062;-59
2021/12/31 04:23:52;;;;;;;3.17;0.85;;;;;;;20.27;51.66;101614.75;5095133;28;20031;-59
2021/12/31 04:26:18;;;;;;;3.92;1.10;;;;;;;20.27;51.72;101636.50;5077450;28;20035;-59
2021/12/31 04:28:44;;;;;;;2.40;1.17;;;;;;;20.28;51.22;101631.94;5076909;28;20035;-58
2021/12/31 04:31:09;;;;;;;5.88;2.45;;;;;;;20.26;51.50;101625.81;5077081;28;20048;-59
2021/12/31 04:33:35;;;;;;;8.02;1.08;;;;;;;20.27;51.06;101633.78;5095007;28;20093;-60
2021/12/31 04:36:00;;;;;;;2.78;1.00;;;;;;;20.24;51.23;101623.25;5094301;28;20047;-59
2021/12/31 04:38:26;;;;;;;1.98;1.38;;;;;;;20.28;51.51;101631.94;5095131;28;20020;-58
2021/12/31 04:40:51;;;;;;;5.13;1.25;;;;;;;20.26;51.55;101629.41;5094924;28;20460;-58
2021/12/31 04:43:16;;;;;;;3.20;1.02;;;;;;;20.28;51.49;101624.63;5094914;28;20414;-59
2021/12/31 04:45:42;;;;;;;3.08;1.00;;;;;;;20.30;50.85;101632.59;5094797;28;20020;-59
2021/12/31 04:48:07;;;;;;;9.60;1.30;;;;;;;20.31;51.87;101640.59;5094790;28;20111;-59
2021/12/31 04:50:33;;;;;;;1.95;1.02;;;;;;;20.30;51.93;101633.44;5094770;28;20032;-59
2021/12/31 04:52:58;;;;;;;4.10;1.58;;;;;;;20.29;51.43;101626.31;5094850;28;20101;-59
2021/12/31 04:55:24;;;;;;;1.88;1.30;;;;;;;20.31;51.82;101635.16;5094916;28;20023;-58
2021/12/31 04:57:49;;;;;;;5.07;1.23;;;;;;;20.33;51.46;101641.28;5094882;28;20028;-58
2021/12/31 05:00:15;;;;;;;3.88;1.42;;;;;;;20.33;51.43;101624.94;5094512;28;20020;-59
2021/12/31 05:02:41;;;;;;;2.72;0.90;;;;;;;20.33;51.40;101634.97;5076546;28;20099;-59
2021/12/31 05:05:07;;;;;;;2.38;1.05;;;;;;;20.31;51.35;101629.72;5094730;28;20455;-59
2021/12/31 05:07:32;;;;;;;1.95;1.00;;;;;;;20.30;51.12;101632.59;5094811;28;20016;-59
2021/12/31 05:09:58;;;;;;;1.20;0.73;;;;;;;20.29;51.55;101634.50;5076164;28;20032;-59
2021/12/31 05:12:27;;;;;;;2.50;0.82;;;;;;;20.29;51.55;101633.63;5094558;28;20117;-59
2021/12/31 05:14:53;;;;;;;2.60;1.20;;;;;;;20.28;51.65;101638.22;5094555;28;20055;-59
2021/12/31 05:17:18;;;;;;;2.30;0.82;;;;;;;20.26;51.63;101631.25;5076050;28;20066;-60
2021/12/31 05:19:45;;;;;;;2.40;0.98;;;;;;;20.25;51.50;101626.81;5094265;28;20024;-59
2021/12/31 05:22:14;;;;;;;3.55;1.10;;;;;;;20.23;51.14;101620.69;5094505;28;20024;-59
2021/12/31 05:24:40;;;;;;;7.82;1.52;;;;;;;20.22;51.40;101624.41;5094025;28;20082;-60
2021/12/31 05:27:06;;;;;;;2.72;1.05;;;;;;;20.19;51.75;101620.16;5094361;28;20020;-59
2021/12/31 05:29:32;;;;;;;4.10;1.27;;;;;;;20.17;52.02;101627.66;5094710;28;20024;-59
2021/12/31 05:31:57;;;;;;;2.70;1.17;;;;;;;20.17;51.85;101624.09;5093937;28;20058;-59
2021/12/31 05:34:23;;;;;;;2.60;1.13;;;;;;;20.14;51.30;101625.28;5094207;28;20111;-59
2021/12/31 05:36:48;;;;;;;5.63;1.20;;;;;;;20.12;51.71;101618.31;5094082;28;20494;-58
2021/12/31 05:39:14;;;;;;;1.88;0.88;;;;;;;20.11;51.20;101622.06;5094251;28;20031;-58
2021/12/31 05:41:40;;;;;;;4.80;1.40;;;;;;;20.07;51.27;101618.81;5094235;28;20054;-59
2021/12/31 05:44:06;;;;;;;1.50;0.95;;;;;;;20.05;50.88;101623.59;5075836;28;20389;-59
2021/12/31 05:46:32;;;;;;;5.35;1.63;;;;;;;20.02;51.30;101623.06;5093890;28;20028;-58
2021/12/31 05:48:57;;;;;;;4.50;1.33;;;;;;;19.98;51.01;101617.16;5098458;28;20035;-59
2021/12/31 05:51:26;;;;;;;4.68;1.40;;;;;;;19.93;51.17;101608.66;5098511;28;20037;-59
2021/12/31 05:53:51;;;;;;;3.13;1.58;;;;;;;19.91;51.54;101613.38;5080276;28;20158;-59
2021/12/31 05:56:17;;;;;;;4.18;1.17;;;;;;;19.90;51.63;101608.13;5098589;28;20055;-59
2021/12/31 05:58:42;;;;;;;3.97;2.30;;;;;;;19.86;51.18;101610.34;5098095;28;20134;-59
2021/12/31 06:01:07;;;;;;;2.38;1.25;;;;;;;19.83;51.61;101607.09;5098186;28;20024;-58
2021/12/31 06:03:33;;;;;;;4.72;1.42;;;;;;;19.79;51.64;101611.19;5097875;28;20020;-58
2021/12/31 06:05:58;;;;;;;3.70;1.20;;;;;;;19.76;51.54;101601.50;5098375;28;20123;-59
2021/12/31 06:08:23;;;;;;;3.88;1.45;;;;;;;19.72;50.97;101606.44;5098156;28;20378;-58
2021/12/31 06:10:49;;;;;;;1.63;1.17;;;;;;;19.69;51.36;101606.78;5098079;28;20035;-58
2021/12/31 06:13:14;;;;;;;2.78;1.20;;;;;;;19.62;51.69;101599.47;5098306;28;20027;-59
2021/12/31 06:15:43;;;;;;;5.40;1.33;;;;;;;19.66;51.23;101592.66;5080198;28;20024;-59
2021/12/31 06:18:10;;;;;;;3.22;1.33;;;;;;;19.64;51.58;101595.56;5063870;28;20042;-59
2021/12/31 06:20:40;;;;;;;6.68;1.73;;;;;;;19.64;50.99;101592.00;5097887;28;20024;-59
2021/12/31 06:23:06;;;;;;;7.88;1.30;;;;;;;19.62;51.16;101588.59;5098482;28;20098;-59
2021/12/31 06:25:32;;;;;;;6.30;1.17;;;;;;;19.60;50.93;101587.91;5097809;28;20469;-59
2021/12/31 06:27:59;;;;;;;1.85;0.95;;;;;;;19.59;51.12;101586.22;5098421;28;20034;-59
2021/12/31 06:30:24;;;;;;;5.22;1.77;;;;;;;19.58;51.39;101598.09;5097743;28;20055;-59
2021/12/31 06:32:50;;;;;;;2.25;1.10;;;;;;;19.56;51.11;101586.56;5098007;28;20357;-59
2021/12/31 06:35:15;;;;;;;2.42;1.23;;;;;;;19.53;50.95;101585.03;5098152;28;20019;-59
2021/12/31 06:37:41;;;;;;;4.28;1.52;;;;;;;19.50;51.22;101584.50;5079765;28;20027;-60
2021/12/31 06:40:07;;;;;;;3.13;1.60;;;;;;;19.48;51.08;101581.97;5098362;28;20024;-59
2021/12/31 06:42:35;;;;;;;3.22;0.90;;;;;;;19.47;51.15;101573.97;5097051;28;20053;-59
2021/12/31 06:45:01;;;;;;;1.23;1.08;;;;;;;19.47;51.50;101580.25;5097968;28;20381;-59
2021/12/31 06:47:26;;;;;;;1.88;1.15;;;;;;;19.44;52.11;101575.16;5097533;28;20069;-59
2021/12/31 06:49:51;;;;;;;1.85;1.50;;;;;;;19.43;51.03;101575.34;5097627;28;20055;-59
2021/12/31 06:52:16;;;;;;;2.58;1.00;;;;;;;19.38;50.58;101577.66;5097381;28;20031;-58
2021/12/31 06:54:42;;;;;;;1.00;0.95;;;;;;;19.39;51.33;101587.53;5097332;28;20024;-59
2021/12/31 06:57:07;;;;;;;5.63;1.30;;;;;;;19.37;51.03;101578.69;5097305;28;20016;-61
2021/12/31 06:59:32;;;;;;;2.33;1.00;;;;;;;19.35;51.24;101575.25;5096807;28;20023;-59
2021/12/31 07:01:58;;;;;;;3.47;0.90;;;;;;;19.33;51.44;101572.72;5097231;28;20051;-59
2021/12/31 07:04:23;;;;;;;2.70;1.40;;;;;;;19.34;51.41;101574.44;5078852;28;20088;-60
2021/12/31 07:06:49;;;;;;;2.05;0.82;;;;;;;19.37;51.07;101584.97;5096991;28;20024;-59
2021/12/31 07:09:14;;;;;;;14.10;2.00;;;;;;;19.36;51.46;101575.13;5097121;28;20058;-59
2021/12/31 07:11:40;;;;;;;7.03;1.58;;;;;;;19.36;51.29;101576.97;5097174;28;20490;-59
2021/12/31 07:14:05;;;;;;;5.43;1.10;;;;;;;19.38;51.32;101585.81;5096931;28;20028;-59
2021/12/31 07:16:30;;;;;;;1.70;1.20;;;;;;;19.37;50.50;101584.13;5097206;28;20016;-59
2021/12/31 07:18:56;;;;;;;2.28;1.10;;;;;;;19.39;51.26;101598.41;5097244;28;20028;-59
2021/12/31 07:21:21;;;;;;;5.35;0.95;;;;;;;19.40;51.17;101600.13;5096759;28;20067;-58
2021/12/31 07:23:46;;;;;;;1.80;1.00;;;;;;;19.39;50.95;101603.84;5097222;28;20089;-59
2021/12/31 07:26:12;;;;;;;2.88;0.98;;;;;;;19.39;51.10;101606.56;5097021;28;20031;-60
2021/12/31 07:28:37;;;;;;;2.47;1.23;;;;;;;19.40;51.25;101589.25;5097348;28;20062;-59
2021/12/31 07:31:03;;;;;;;4.03;1.10;;;;;;;19.38;51.24;101583.09;5096318;28;20062;-59
2021/12/31 07:33:28;;;;;;;0.77;0.77;;;;;;;19.41;50.86;101580.91;5096761;28;20028;-59
2021/12/31 07:35:54;;;;;;;2.45;1.05;;;;;;;19.42;51.15;101587.22;5078384;28;20103;-59
2021/12/31 07:38:22;;;;;;;2.45;0.80;;;;;;;19.42;51.11;101588.06;5096764;28;20020;-60
2021/12/31 07:40:50;;;;;;;3.65;1.38;;;;;;;19.41;51.11;101588.22;5096736;28;20028;-59
2021/12/31 07:43:16;;;;;;;2.67;0.90;;;;;;;19.40;50.95;101590.09;5096924;28;20028;-59
2021/12/31 07:45:41;;;;;;;1.17;0.90;;;;;;;19.37;50.59;101590.41;5097050;28;20099;-59
2021/12/31 07:48:07;;;;;;;1.85;0.70;;;;;;;19.40;50.81;101595.50;5096687;28;20027;-58
2021/12/31 07:50:33;;;;;;;2.25;0.82;;;;;;;19.40;50.62;101600.13;5095965;28;20024;-59
2021/12/31 07:52:58;;;;;;;1.27;1.17;;;;;;;19.40;50.98;101611.00;5096491;28;20028;-60
2021/12/31 07:55:24;;;;;;;4.00;1.00;;;;;;;19.40;50.77;101611.00;5095927;28;20016;-58
2021/12/31 07:57:49;;;;;;;2.17;1.35;;;;;;;19.43;50.91;101616.94;5077461;28;20503;-59
2021/12/31 08:00:15;;;;;;;1.08;1.00;;;;;;;19.43;50.96;101621.53;5096279;28;20020;-58
2021/12/31 08:02:40;;;;;;;1.85;1.42;;;;;;;19.44;50.81;101620.50;5095925;28;20443;-59
2021/12/31 08:05:06;;;;;;;5.68;1.00;;;;;;;19.42;51.05;101619.81;5095690;28;20074;-59
2021/12/31 08:07:32;;;;;;;1.50;0.80;;;;;;;19.47;50.74;101631.03;5095749;28;20366;-59
2021/12/31 08:09:57;;;;;;;1.17;0.98;;;;;;;19.47;50.54;101620.16;5095161;28;20020;-59
2021/12/31 08:12:23;;;;;;;2.20;0.98;;;;;;;19.49;50.67;101623.56;5095089;28;20023;-59
2021/12/31 08:14:48;;;;;;;1.92;1.10;;;;;;;19.46;50.81;101615.72;5096274;28;20129;-59
2021/12/31 08:17:14;;;;;;;3.25;1.17;;;;;;;19.52;51.01;101615.06;5095785;28;20024;-59
2021/12/31 08:19:39;;;;;;;6.47;1.02;;;;;;;19.52;50.72;101615.94;5077904;28;20103;-59
2021/12/31 08:22:04;;;;;;;1.25;0.93;;;;;;;19.54;50.26;101619.31;5095718;28;20016;-59
2021/12/31 08:24:30;;;;;;;1.55;0.98;;;;;;;19.53;50.43;101627.66;5095396;28;20024;-59
2021/12/31 08:26:55;;;;;;;1.95;1.38;;;;;;;19.50;50.31;101617.13;5095778;28;20020;-60
2021/12/31 08:29:21;;;;;;;5.10;1.17;;;;;;;19.52;50.68;101621.38;5095891;28;20059;-60
2021/12/31 08:31:46;;;;;;;3.72;0.95;;;;;;;19.50;50.59;101628.00;5095442;28;20072;-58
2021/12/31 08:34:11;;;;;;;0.85;0.80;;;;;;;19.49;50.47;101626.28;5095668;28;20028;-59
2021/12/31 08:36:37;;;;;;;4.25;1.40;;;;;;;19.50;50.78;101623.41;5095209;28;20528;-59
2021/12/31 08:39:05;;;;;;;7.53;1.00;;;;;;;19.49;51.17;101626.28;5095381;28;20476;-58
2021/12/31 08:41:31;;;;;;;2.35;1.15;;;;;;;19.53;50.66;101635.81;5095042;28;20048;-59
2021/12/31 08:43:56;;;;;;;3.47;1.20;;;;;;;19.53;50.64;101643.97;5096558;28;20111;-59
2021/12/31 08:46:21;;;;;;;5.80;1.10;;;;;;;19.56;50.55;101647.19;5099254;28;20157;-59
2021/12/31 08:48:47;;;;;;;5.43;1.17;;;;;;;19.59;50.52;101649.59;5098450;28;20031;-58
2021/12/31 08:51:12;;;;;;;1.40;0.90;;;;;;;19.60;50.64;101662.13;5097562;28;20030;-59
2021/12/31 08:53:37;;;;;;;8.13;1.23;;;;;;;19.63;50.37;101661.81;5098059;28;20085;-58
2021/12/31 08:56:03;;;;;;;3.70;1.23;;;;;;;19.68;50.81;101661.31;5097700;28;20028;-59
2021/12/31 08:58:28;;;;;;;3.88;1.35;;;;;;;19.69;50.70;101665.72;5097993;28;20373;-59
2021/12/31 09:00:54;;;;;;;2.70;0.95;;;;;;;19.76;49.99;101650.47;5098371;28;20048;-59
2021/12/31 09:03:19;;;;;;;1.85;1.20;;;;;;;19.80;50.32;101637.34;5098600;28;20087;-59
2021/12/31 09:05:44;;;;;;;3.03;1.10;;;;;;;19.82;50.08;101624.47;5098075;28;20366;-59
2021/12/31 09:08:10;;;;;;;1.45;1.10;;;;;;;19.84;49.60;101616.97;5097574;28;20499;-59
2021/12/31 09:10:35;;;;;;;1.63;1.20;;;;;;;19.86;50.28;101634.81;5097698;28;20064;-59
2021/12/31 09:13:01;;;;;;;2.50;1.38;;;;;;;19.88;50.23;101629.22;5099175;28;20039;-60
2021/12/31 09:15:26;;;;;;;3.67;1.13;;;;;;;19.88;49.92;101624.59;5099426;28;20084;-58
2021/12/31 09:17:51;;;;;;;2.20;0.98;;;;;;;19.90;50.36;101628.03;5099217;28;20392;-59
2021/12/31 09:20:17;;;;;;;2.70;0.93;;;;;;;19.89;50.31;101623.59;5099040;28;20056;-59
2021/12/31 09:22:43;;;;;;;6.72;1.40;;;;;;;19.87;49.74;101609.34;5079901;28;20165;-59
2021/12/31 09:25:09;;;;;;;3.90;1.23;;;;;;;19.89;49.56;101607.28;5079173;28;20024;-59
2021/12/31 09:27:34;;;;;;;2.15;1.23;;;;;;;19.93;49.84;101611.38;5097371;28;20039;-58
2021/12/31 09:29:59;;;;;;;1.42;1.25;;;;;;;19.99;49.68;101607.13;5097277;28;20028;-59
2021/12/31 09:32:26;;;;;;;1.35;1.20;;;;;;;20.00;49.47;101609.66;5097050;28;20044;-59
2021/12/31 09:34:51;;;;;;;1.85;1.08;;;;;;;19.98;49.88;101603.53;5097051;28;20107;-58
2021/12/31 09:37:18;;;;;;;4.70;1.90;;;;;;;19.98;50.19;101611.72;5096964;28;20055;-59
2021/12/31 09:39:44;;;;;;;1.35;0.90;;;;;;;20.01;49.81;101611.38;5097631;28;20519;-59
2021/12/31 09:42:09;;;;;;;3.20;2.33;;;;;;;20.06;50.06;101617.13;5098785;28;20032;-59
2021/12/31 09:44:36;;;;;;;1.80;1.10;;;;;;;20.09;49.64;101611.34;5098124;28;20380;-59
2021/12/31 09:47:07;;;;;;;2.33;1.50;;;;;;;20.11;49.42;101612.03;5097982;28;20039;-59
2021/12/31 09:49:34;;;;;;;2.03;1.55;;;;;;;20.13;49.17;101611.84;5081410;28;20103;-58
2021/12/31 09:52:01;;;;;;;2.50;1.85;;;;;;;20.18;49.59;101629.34;5098453;28;20031;-59
2021/12/31 09:54:26;;;;;;;2.13;1.77;;;;;;;20.21;49.69;101653.50;5095824;28;20031;-59
2021/12/31 09:56:52;;;;;;;8.10;3.47;;;;;;;20.24;49.50;101661.34;5093803;28;20020;-60
2021/12/31 09:59:17;;;;;;;8.50;3.83;;;;;;;20.24;49.82;101661.34;5094180;28;20020;-59
2021/12/31 10:01:47;;;;;;;6.13;3.63;;;;;;;20.28;49.53;101661.88;5094041;28;20048;-58
2021/12/31 10:04:12;;;;;;;5.93;2.45;;;;;;;20.30;49.17;101666.09;5094076;28;20536;-59
2021/12/31 10:06:38;;;;;;;11.77;4.05;;;;;;;20.29;49.30;101674.47;5094097;28;20028;-59
2021/12/31 10:09:03;;;;;;;4.68;2.75;;;;;;;20.24;49.45;101677.66;5093748;28;20035;-58
2021/12/31 10:11:29;;;;;;;7.07;3.40;;;;;;;20.26;49.50;101677.53;5093703;28;20036;-59
2021/12/31 10:13:57;;;;;;;7.35;3.90;;;;;;;20.27;49.81;101685.50;5093676;28;20021;-58
2021/12/31 10:16:37;;;;;;;6.75;1.73;;;;;;;20.30;49.77;101687.88;5075885;28;20191;-59
2021/12/31 10:19:09;;;;;;;1.40;1.30;;;;;;;20.32;49.47;101674.94;5093803;28;20099;-59
2021/12/31 10:21:46;;;;;;;1.92;1.58;;;;;;;20.32;49.09;101674.94;5093858;28;20024;-59
2021/12/31 10:24:38;;;;;;;2.35;1.67;;;;;;;20.36;48.92;101664.56;5093854;28;20024;-58
2021/12/31 10:27:23;;;;;;;10.38;5.03;;;;;;;20.43;49.80;101659.28;5072017;28;20043;-58
2021/12/31 10:29:59;;;;;;;4.35;2.03;;;;;;;20.51;48.85;101657.41;5094266;28;20028;-59
2021/12/31 10:32:28;;;;;;;6.57;4.38;;;;;;;20.57;48.97;101650.41;5093470;28;20478;-59
2021/12/31 10:35:06;;;;;;;3.75;1.80;;;;;;;20.56;49.58;101648.72;5095772;28;20032;-59
2021/12/31 10:37:41;;;;;;;5.03;1.88;;;;;;;20.55;49.71;101644.28;5097375;28;20024;-58
2021/12/31 10:40:07;;;;;;;8.00;1.73;;;;;;;20.51;48.98;101637.50;5097120;28;20051;-59
2021/12/31 10:42:33;;;;;;;1.50;1.20;;;;;;;20.49;49.36;101631.38;5097117;28;20028;-58
2021/12/31 10:45:03;;;;;;;2.75;1.75;;;;;;;20.46;49.27;101634.47;5096663;28;20077;-59
2021/12/31 10:47:37;;;;;;;3.30;1.95;;;;;;;20.41;48.88;101643.13;5097119;28;20522;-58
2021/12/31 10:50:03;;;;;;;2.97;1.85;;;;;;;20.41;49.50;101634.13;5078778;28;20028;-59
2021/12/31 10:53:07;;;;;;;1.77;1.27;;;;;;;20.40;49.60;101638.72;5097292;28;20497;-59
2021/12/31 10:55:34;;;;;;;1.10;0.93;;;;;;;20.42;48.92;101603.16;5092487;28;20393;-60
2021/12/31 10:58:01;;;;;;;2.88;1.95;;;;;;;20.47;49.46;101627.97;5079293;28;20047;-58
2021/12/31 11:00:29;;;;;;;1.20;0.95;;;;;;;20.55;49.18;101625.22;5096649;28;20020;-59
2021/12/31 11:02:55;;;;;;;3.03;1.48;;;;;;;20.61;48.53;101635.41;5096712;28;20097;-59
2021/12/31 11:05:22;;;;;;;2.17;1.75;;;;;;;20.63;48.85;101630.66;5096696;28;20137;-59
2021/12/31 11:07:48;;;;;;;1.52;1.20;;;;;;;20.65;49.10;101625.88;5096766;28;20028;-59
2021/12/31 11:10:14;;;;;;;10.40;4.57;;;;;;;20.74;49.39;101635.75;5078934;28;20028;-59
2021/12/31 11:12:45;;;;;;;11.63;4.85;;;;;;;20.82;48.68;101633.84;5078747;28;20062;-58
2021/12/31 11:15:11;;;;;;;12.43;3.90;;;;;;;20.86;48.31;101618.81;5079754;28;20020;-59
2021/12/31 11:17:37;;;;;;;5.00;2.13;;;;;;;20.96;48.88;101615.03;5096250;28;20036;-58
2021/12/31 11:20:05;;;;;;;5.88;2.63;;;;;;;20.99;48.65;101614.69;5096130;28;20039;-59
2021/12/31 11:22:30;;;;;;;10.77;4.82;;;;;;;21.00;48.87;101625.41;5078711;28;20038;-59
2021/12/31 11:25:18;;;;;;;9.63;2.92;;;;;;;20.99;49.08;101607.38;5078585;28;20102;-59